Church Hill, TN (37642)

3:24 AM EST on January 27, 2015 (GMT -0500)
west carters valley | Change Station
CLOSE
Current Station
Personal Weather Station
Location: Church Hill, TN
Elevation: 1453 ft
Nearby Weather Stations
Active Advisory: Special Statement

Elev 1453 ft 36.57 °N, 82.69 °W | Updated 3 minutes ago

Overcast
Overcast
28.2 °F
Feels Like 28 °F
N
2.2
Wind Variable Wind from West

Today
High -- | Low -- °F
--% Chance of Precip.
Yesterday
High -- | Low -- °F
Precip. -- in
7:36 AM 5:51 PM
First Quarter, 52% visible
Pressure 29.85 in
Visibility 10.0 miles
Clouds Overcast 2100 ft
Windchill 28 °F
Dew Point 23 °F
Humidity 79%
Rainfall 0.00 in
Snow Depth Not available.
UV 0 out of 12
Pollen .30 out of 12
Air Quality Not available.
Flu Activity Not available.
METAR KTRI 270753Z 26005KT 10SM OVC021 M02/M05 A2985 RMK AO2 SLP107 T10171050

More Conditions Fewer Conditions

Pressure 29.85 in
Visibility 10.0 miles
Clouds Overcast 2100 ft
Windchill 28 °F
Dew Point 23 °F
Humidity 79%
Rainfall 0.00 in
Snow Depth Not available.
UV 0 out of 12
Pollen .30 out of 12
Air Quality Not available.
Flu Activity Not available.
METAR KTRI 270753Z 26005KT 10SM OVC021 M02/M05 A2985 RMK AO2 SLP107 T10171050

More Conditions Fewer Conditions

10-Day Weather Forecast

Almanac

Astronomy

Jan. 27, 2015 Rise Set
Actual Time
Civil Twilight
Nautical Twilight
Astronomical Twilight
Moon
Length of Visible Light
Length of Day
Tomorrow will be .
, % of the Moon is Illuminated

Today's Extremes

State Highs State Lows

Community

WunderPhotos

Upload Photos

1,790,543 photos uploaded!

WunderBlogs® & News

Nearby

Air Quality

  Air Quality AQ Index Pollutant
Not available.

Snow Depth

Station Depth Elevation

Earthquake Activity

City Distance Mag. Time & Date
Minimum magnitude displayed is 2.5.

Coastal Water Temperatures

Place Temperature

Nearby Weather Stations